Time;durP1;ratioP1;P1;durP2;ratioP2;P2;SDS_P1;SDS_P2;PMS_P1;PMS_P2;Temp;Humidity;BMP_temperature;BMP_pressure;BME280_temperature;BME280_humidity;BME280_pressure;Samples;Min_cycle;Max_cycle;Signal;HPM_P1;HPM_P2
2021/06/08 00:08:58;;;;;;;19.5;9.7;;;;;;;11.26;100;98797.58;;;;
2021/06/08 00:18:56;;;;;;;9.4;6.9;;;;;;;11.14;100;98793.84;;;;
2021/06/08 00:28:55;;;;;;;10.8;7.3;;;;;;;11.08;100;98796.66;;;;
2021/06/08 00:38:53;;;;;;;9.4;6.2;;;;;;;11.02;100;98787.09;;;;
2021/06/08 00:48:52;;;;;;;8.4;6.5;;;;;;;10.86;100;98776.96;;;;
2021/06/08 00:58:51;;;;;;;11.5;6.2;;;;;;;10.72;100;98785.09;;;;
2021/06/08 01:08:49;;;;;;;10.4;7.5;;;;;;;10.66;100;98780.89;;;;
2021/06/08 01:18:48;;;;;;;18.7;8.3;;;;;;;10.55;100;98779.53;;;;
2021/06/08 01:28:46;;;;;;;9.3;7.2;;;;;;;10.47;100;98775.66;;;;
2021/06/08 01:38:47;;;;;;;11;7.5;;;;;;;10.38;100;98785.52;;;;
2021/06/08 01:48:43;;;;;;;9.3;6.6;;;;;;;10.32;100;98770.56;;;;
2021/06/08 01:58:42;;;;;;;10;6.9;;;;;;;10.33;100;98782.14;;;;
2021/06/08 02:08:40;;;;;;;10.7;7.1;;;;;;;10.12;100;98784.42;;;;
2021/06/08 02:18:39;;;;;;;10.6;6.7;;;;;;;10.07;100;98798.77;;;;
2021/06/08 02:28:37;;;;;;;7.7;6.5;;;;;;;10.08;100;98800.38;;;;
2021/06/08 02:38:36;;;;;;;7.5;5.5;;;;;;;10.03;100;98802.38;;;;
2021/06/08 02:48:34;;;;;;;11;6.4;;;;;;;10.07;100;98804.16;;;;
2021/06/08 02:58:33;;;;;;;9.4;6.6;;;;;;;10.27;100;98812.98;;;;
2021/06/08 03:08:31;;;;;;;13.6;7.2;;;;;;;10.28;100;98825.34;;;;
2021/06/08 03:18:30;;;;;;;12.7;7.6;;;;;;;10.39;100;98826.73;;;;
2021/06/08 03:28:29;;;;;;;8.4;5.7;;;;;;;10.95;100;98851.44;;;;
2021/06/08 03:38:27;;;;;;;9.2;6.6;;;;;;;11.33;100;98840.32;;;;
2021/06/08 03:48:26;;;;;;;8.9;7.1;;;;;;;11.67;100;98843.27;;;;
2021/06/08 03:58:24;;;;;;;15.9;8.7;;;;;;;12.05;100;98847.17;;;;
2021/06/08 04:08:23;;;;;;;10.1;6.1;;;;;;;12.41;100;98852.42;;;;
2021/06/08 04:18:22;;;;;;;9.3;8.1;;;;;;;12.85;100;98845.2;;;;
2021/06/08 04:28:21;;;;;;;10.4;5.2;;;;;;;13.32;100;98851.66;;;;
2021/06/08 04:38:20;;;;;;;10.3;6.1;;;;;;;13.94;100;98852.06;;;;
2021/06/08 04:48:19;;;;;;;9.1;7.2;;;;;;;14.61;100;98861.07;;;;
2021/06/08 04:58:18;;;;;;;8.7;6;;;;;;;15.03;100;98867.38;;;;
2021/06/08 05:08:17;;;;;;;9.7;6.3;;;;;;;15.52;100;98862.24;;;;
2021/06/08 05:18:16;;;;;;;8;5.5;;;;;;;16.06;100;98871.97;;;;
2021/06/08 05:28:15;;;;;;;8.5;5.5;;;;;;;16.58;100;98876.83;;;;
2021/06/08 05:38:14;;;;;;;9.4;5.4;;;;;;;17.08;100;98873.72;;;;
2021/06/08 05:48:14;;;;;;;7.2;5.2;;;;;;;17.7;100;98867.78;;;;
2021/06/08 05:58:13;;;;;;;7.6;5.1;;;;;;;18.09;98.32129;98883.28;;;;
2021/06/08 06:08:13;;;;;;;8.9;5.5;;;;;;;18.63;93.73145;98877.28;;;;
2021/06/08 06:18:12;;;;;;;7.8;4.8;;;;;;;18.93;88.78906;98874.86;;;;
2021/06/08 06:28:12;;;;;;;7.8;5.9;;;;;;;19.13;89.7334;98867.48;;;;
2021/06/08 06:38:12;;;;;;;7.7;6.3;;;;;;;19.49;94.03711;98869.88;;;;
2021/06/08 06:48:14;;;;;;;18.6;7.7;;;;;;;20;93.13477;98870.48;;;;
2021/06/08 06:58:11;;;;;;;11.9;7.6;;;;;;;20.46;89.69043;98865.88;;;;
2021/06/08 07:08:11;;;;;;;11.6;9.1;;;;;;;20.58;85.41211;98865.7;;;;
2021/06/08 07:18:11;;;;;;;12.1;9.7;;;;;;;20.91;87.44531;98871.3;;;;
2021/06/08 07:28:11;;;;;;;15;9.5;;;;;;;21.27;83.25879;98877.33;;;;
2021/06/08 07:38:11;;;;;;;20;9;;;;;;;21.51;81.96484;98874.13;;;;
2021/06/08 07:48:11;;;;;;;14;8.2;;;;;;;21.88;83.98438;98876.91;;;;
2021/06/08 07:58:11;;;;;;;9.3;7.3;;;;;;;22.34;84.78809;98872.72;;;;
2021/06/08 08:08:13;;;;;;;15.3;7.7;;;;;;;22.83;79.71484;98875.13;;;;
2021/06/08 08:18:11;;;;;;;14.2;7.9;;;;;;;22.91;80.81836;98873.98;;;;
2021/06/08 08:28:12;;;;;;;14.5;7.6;;;;;;;23.24;78.98535;98863.99;;;;
2021/06/08 08:38:13;;;;;;;22.1;7.1;;;;;;;23.59;72.65234;98863.41;;;;
2021/06/08 08:48:12;;;;;;;10.9;5.5;;;;;;;23.84;67.71875;98867.05;;;;
2021/06/08 08:58:12;;;;;;;10;5.7;;;;;;;24.25;69.69336;98859.3;;;;
2021/06/08 09:08:13;;;;;;;9.5;3.7;;;;;;;24.42;58.71973;98855.77;;;;
2021/06/08 09:18:13;;;;;;;6.4;3.4;;;;;;;24.71;54.92578;98851.84;;;;
2021/06/08 09:28:14;;;;;;;4.7;2.5;;;;;;;24.94;48.6123;98843.17;;;;
2021/06/08 09:38:14;;;;;;;5.1;3;;;;;;;25.79;49.24512;98835.41;;;;
2021/06/08 09:48:15;;;;;;;7.7;4.1;;;;;;;26.37;44.51953;98842.98;;;;
2021/06/08 09:58:15;;;;;;;8.2;4.2;;;;;;;26.36;46.7959;98840.61;;;;
2021/06/08 10:08:16;;;;;;;6.3;4.2;;;;;;;25.55;48.50098;98838.31;;;;
2021/06/08 10:18:16;;;;;;;7.4;5.1;;;;;;;25.08;49.80176;98842.36;;;;
2021/06/08 10:28:17;;;;;;;6.4;4.3;;;;;;;24.88;47.52441;98837.28;;;;
2021/06/08 10:38:18;;;;;;;7.2;3.7;;;;;;;25.13;49.32617;98833.69;;;;
2021/06/08 10:48:19;;;;;;;11.1;5.7;;;;;;;25.76;48.27539;98821.62;;;;
2021/06/08 10:58:19;;;;;;;12.1;4.5;;;;;;;26.55;48.37207;98822.7;;;;
2021/06/08 11:08:19;;;;;;;6.4;3.9;;;;;;;26.75;44.30762;98818.17;;;;
2021/06/08 11:18:20;;;;;;;11;5.1;;;;;;;26.99;45.65625;98806.89;;;;
2021/06/08 11:28:21;;;;;;;9.5;4.9;;;;;;;27.31;43.52246;98791.91;;;;
2021/06/08 11:38:22;;;;;;;6.4;4.5;;;;;;;28.02;42.73633;98786.2;;;;
2021/06/08 11:48:23;;;;;;;18.7;5.2;;;;;;;27.91;41.54102;98783.59;;;;
2021/06/08 11:58:23;;;;;;;9.8;5;;;;;;;27.7;38.49805;98780.36;;;;
2021/06/08 12:08:24;;;;;;;7.6;4.1;;;;;;;27.41;39.70605;98775.17;;;;
2021/06/08 12:18:27;;;;;;;7.9;4.9;;;;;;;26.88;41.26855;98777.76;;;;
2021/06/08 12:28:26;;;;;;;9.3;5.7;;;;;;;27.06;40.9541;98772.03;;;;
2021/06/08 12:38:27;;;;;;;14.6;5.8;;;;;;;27.16;43.3418;98762.83;;;;
2021/06/08 12:48:28;;;;;;;9.3;5.3;;;;;;;26.9;40.64355;98756.02;;;;
2021/06/08 12:58:29;;;;;;;8.6;5.4;;;;;;;27.11;42.11816;98744.69;;;;
2021/06/08 13:08:29;;;;;;;6.7;3.9;;;;;;;27.1;40.54297;98743.14;;;;
2021/06/08 13:18:30;;;;;;;7.5;4.2;;;;;;;27.5;41.71582;98738.68;;;;
2021/06/08 13:28:31;;;;;;;7.9;4.2;;;;;;;28.36;39.5752;98727.86;;;;
2021/06/08 13:38:32;;;;;;;7.8;4.9;;;;;;;28.25;39.81543;98730.84;;;;
2021/06/08 13:48:34;;;;;;;7.2;4.1;;;;;;;28.27;37.96484;98725.65;;;;
2021/06/08 14:08:34;;;;;;;6.5;4.1;;;;;;;28.84;36.22754;98722.66;;;;
2021/06/08 14:18:35;;;;;;;6.3;4.1;;;;;;;29.74;38.04004;98714.02;;;;
2021/06/08 14:28:36;;;;;;;8.8;3.7;;;;;;;30.24;34.07031;98708.03;;;;
2021/06/08 14:38:37;;;;;;;4.4;2.6;;;;;;;29.03;33.34766;98686.98;;;;
2021/06/08 14:48:38;;;;;;;5.9;3.5;;;;;;;29.16;35.82422;98676.78;;;;
2021/06/08 14:58:39;;;;;;;6.1;3;;;;;;;30.5;34.24512;98686.74;;;;
2021/06/08 15:08:40;;;;;;;7;3.5;;;;;;;32.58;31.33887;98683.11;;;;
2021/06/08 15:18:43;;;;;;;6;3.2;;;;;;;33.32;26.69238;98677.55;;;;
2021/06/08 15:28:43;;;;;;;5.6;2.3;;;;;;;33.08;27.44922;98668.08;;;;
2021/06/08 15:38:46;;;;;;;4.8;3;;;;;;;33.61;27.43262;98662.46;;;;
2021/06/08 15:48:48;;;;;;;7;2.8;;;;;;;33.24;27.61523;98658.74;;;;
2021/06/08 15:58:48;;;;;;;6.8;3.8;;;;;;;30.22;30.21973;98646.53;;;;
2021/06/08 16:08:50;;;;;;;13.3;9.7;;;;;;;29.62;32.6875;98651.57;;;;
2021/06/08 16:18:51;;;;;;;5;3.7;;;;;;;32.42;30.16309;98639.38;;;;
2021/06/08 16:28:52;;;;;;;6.2;4;;;;;;;33.79;26.97266;98646.56;;;;
2021/06/08 16:38:54;;;;;;;5.2;3;;;;;;;35.15;24.66797;98645.84;;;;
2021/06/08 16:48:56;;;;;;;4.9;2.6;;;;;;;35.29;24.95508;98636.77;;;;
2021/06/08 16:58:57;;;;;;;4.9;2.7;;;;;;;34.73;26.3877;98648.55;;;;
2021/06/08 17:08:59;;;;;;;6;2.9;;;;;;;32.06;27.92871;98627.91;;;;
2021/06/08 17:19:02;;;;;;;5.7;3.3;;;;;;;29.69;32.02441;98628.39;;;;
2021/06/08 17:29:02;;;;;;;5.5;3.1;;;;;;;29.26;34.13965;98618.28;;;;
2021/06/08 17:39:04;;;;;;;9.1;4.4;;;;;;;30.83;31.9248;98615.83;;;;
2021/06/08 17:49:05;;;;;;;14.9;8.1;;;;;;;31.76;30.93457;98631.3;;;;
2021/06/08 17:59:11;;;;;;;10.2;3.9;;;;;;;30.61;34.69629;98621.25;;;;
2021/06/08 18:09:07;;;;;;;36.1;28;;;;;;;27.83;37.76074;98631.77;;;;
2021/06/08 18:19:10;;;;;;;9.6;8.1;;;;;;;25.96;40.34668;98637.66;;;;
2021/06/08 18:29:09;;;;;;;8.9;4.4;;;;;;;24.63;43.71094;98657.33;;;;
2021/06/08 18:39:09;;;;;;;11.7;7.4;;;;;;;23.37;46.96582;98650.68;;;;
2021/06/08 18:49:09;;;;;;;13.3;8.7;;;;;;;22;49.01855;98663.39;;;;
2021/06/08 18:59:09;;;;;;;8.5;5.2;;;;;;;20.86;53.28125;98681.8;;;;
2021/06/08 19:09:10;;;;;;;7.6;5.7;;;;;;;19.95;62.70313;98685.56;;;;
2021/06/08 19:19:09;;;;;;;13.2;7;;;;;;;19.11;61.0127;98690.27;;;;
2021/06/08 19:29:08;;;;;;;17.9;6.2;;;;;;;18.44;66.83594;98699.75;;;;
2021/06/08 19:39:08;;;;;;;14;6.5;;;;;;;17.81;70.42188;98705.28;;;;
2021/06/08 19:49:07;;;;;;;11.5;7.2;;;;;;;17.51;74.47363;98715;;;;
2021/06/08 19:59:07;;;;;;;23.4;17;;;;;;;17.08;72.87695;98722.02;;;;
2021/06/08 20:09:07;;;;;;;26.5;15.2;;;;;;;16.8;76.03711;98732.09;;;;
2021/06/08 20:19:05;;;;;;;15.7;11.4;;;;;;;16.39;77.61328;98721.48;;;;
2021/06/08 20:29:04;;;;;;;12.1;7.1;;;;;;;16.07;86.18164;98725.91;;;;
2021/06/08 20:39:04;;;;;;;11;8.1;;;;;;;15.83;83.08301;98732.13;;;;
2021/06/08 20:49:03;;;;;;;13.9;6.6;;;;;;;15.65;84.6543;98747.08;;;;
2021/06/08 20:59:02;;;;;;;9.9;6.3;;;;;;;15.44;84.93164;98743.59;;;;
2021/06/08 21:09:01;;;;;;;14.1;7.6;;;;;;;15.23;88.56543;98743.63;;;;
2021/06/08 21:19:00;;;;;;;9.1;6.9;;;;;;;15;90.46191;98754.04;;;;
2021/06/08 21:28:59;;;;;;;8.8;6.7;;;;;;;14.78;93.60352;98743.54;;;;
2021/06/08 21:38:58;;;;;;;7.9;6.5;;;;;;;14.64;95.45605;98745.71;;;;
2021/06/08 21:48:57;;;;;;;11;7;;;;;;;14.56;95.02832;98760.12;;;;
2021/06/08 21:58:56;;;;;;;7.3;5.9;;;;;;;14.45;96.39746;98753.48;;;;
2021/06/08 22:08:55;;;;;;;8.6;6.4;;;;;;;14.36;96.75195;98755.46;;;;
2021/06/08 22:18:54;;;;;;;10.7;6.9;;;;;;;14.28;96.37207;98758.97;;;;
2021/06/08 22:28:53;;;;;;;8.2;5.7;;;;;;;14.12;99.51367;98756.04;;;;
2021/06/08 22:38:53;;;;;;;9.6;6;;;;;;;14.01;99.85059;98752.09;;;;
2021/06/08 22:48:51;;;;;;;8.9;5.5;;;;;;;13.94;97.94824;98739.05;;;;
2021/06/08 22:58:50;;;;;;;7.7;5;;;;;;;13.86;99.56836;98747.2;;;;
2021/06/08 23:08:49;;;;;;;12.6;6.4;;;;;;;13.64;99.31641;98745.52;;;;
2021/06/08 23:18:47;;;;;;;20.7;6.5;;;;;;;13.56;100;98754.48;;;;
2021/06/08 23:28:46;;;;;;;7.5;6.4;;;;;;;13.47;100;98750.98;;;;
2021/06/08 23:38:45;;;;;;;9.7;6.9;;;;;;;13.41;100;98738.73;;;;
2021/06/08 23:48:45;;;;;;;11.3;7;;;;;;;13.41;100;98746.86;;;;
2021/06/08 23:58:43;;;;;;;7.7;5.3;;;;;;;13.42;100;98749.27;;;;
